Time;durP1;ratioP1;P1;durP2;ratioP2;P2;SDS_P1;SDS_P2;PMS_P1;PMS_P2;Temp;Humidity;BMP_temperature;BMP_pressure;BME280_temperature;BME280_humidity;BME280_pressure;Samples;Min_cycle;Max_cycle;Signal;HPM_P1;HPM_P2
2023/06/14 00:00:34;;;;;;;8.85;2.33;;;;;;;;;;5060494;28;20033;-45
2023/06/14 00:02:59;;;;;;;4.60;2.17;;;;;;;;;;5057654;28;20559;-48
2023/06/14 00:05:26;;;;;;;3.45;2.10;;;;;;;;;;5059964;28;20044;-46
2023/06/14 00:07:53;;;;;;;7.32;2.08;;;;;;;;;;5061883;28;20035;-44
2023/06/14 00:10:19;;;;;;;2.55;2.08;;;;;;;;;;5058666;28;20532;-44
2023/06/14 00:12:44;;;;;;;2.28;2.05;;;;;;;;;;5058817;28;20143;-48
2023/06/14 00:15:09;;;;;;;2.75;1.85;;;;;;;;;;5061155;28;20040;-47
2023/06/14 00:17:36;;;;;;;2.85;2.40;;;;;;;;;;5059152;28;20021;-47
2023/06/14 00:20:05;;;;;;;3.40;1.92;;;;;;;;;;5057558;28;20033;-44
2023/06/14 00:22:31;;;;;;;6.00;2.60;;;;;;;;;;5059070;28;20048;-48
2023/06/14 00:24:57;;;;;;;3.58;2.38;;;;;;;;;;5058076;28;20045;-45
2023/06/14 00:27:22;;;;;;;7.03;2.53;;;;;;;;;;5058969;28;20024;-46
2023/06/14 00:29:47;;;;;;;3.75;2.42;;;;;;;;;;5058162;28;20033;-44
2023/06/14 00:32:13;;;;;;;2.20;2.10;;;;;;;;;;5057249;28;20036;-45
2023/06/14 00:34:38;;;;;;;5.30;2.17;;;;;;;;;;5059896;28;20048;-45
2023/06/14 00:37:04;;;;;;;2.25;2.08;;;;;;;;;;5058048;28;20029;-44
2023/06/14 00:39:29;;;;;;;7.78;2.20;;;;;;;;;;5058267;28;20033;-44
2023/06/14 00:41:55;;;;;;;3.85;2.10;;;;;;;;;;5059406;28;20432;-45
2023/06/14 00:44:21;;;;;;;2.50;2.30;;;;;;;;;;5058316;28;20070;-45
2023/06/14 00:46:46;;;;;;;2.13;1.92;;;;;;;;;;5060992;28;20526;-44
2023/06/14 00:49:15;;;;;;;2.40;2.20;;;;;;;;;;5060088;28;20060;-44
2023/06/14 00:51:41;;;;;;;3.38;2.10;;;;;;;;;;5065001;28;20108;-46
2023/06/14 00:54:06;;;;;;;2.55;2.05;;;;;;;;;;5064915;28;20048;-47
2023/06/14 00:56:32;;;;;;;2.95;2.17;;;;;;;;;;5062604;28;20020;-44
2023/06/14 00:58:58;;;;;;;3.40;2.20;;;;;;;;;;5064192;28;20424;-43
2023/06/14 01:01:23;;;;;;;2.47;2.08;;;;;;;;;;5060608;28;20447;-44
2023/06/14 01:03:50;;;;;;;2.75;2.35;;;;;;;;;;5062381;28;20102;-44
2023/06/14 01:06:26;;;;;;;2.60;2.30;;;;;;;;;;5062733;28;20122;-44
2023/06/14 01:09:03;;;;;;;2.92;2.63;;;;;;;;;;5062350;28;20035;-46
2023/06/14 01:11:35;;;;;;;5.22;2.40;;;;;;;;;;5065122;28;20492;-46
2023/06/14 01:14:03;;;;;;;2.60;2.40;;;;;;;;;;5063025;28;20485;-47
2023/06/14 01:16:31;;;;;;;2.80;2.47;;;;;;;;;;5061669;28;20016;-43
2023/06/14 01:18:57;;;;;;;5.00;2.58;;;;;;;;;;5062752;28;20480;-44
2023/06/14 01:21:24;;;;;;;2.42;2.20;;;;;;;;;;5064072;28;20046;-49
2023/06/14 01:23:54;;;;;;;5.07;2.75;;;;;;;;;;5062788;28;20059;-44
2023/06/14 01:26:21;;;;;;;2.65;2.40;;;;;;;;;;5062379;28;20043;-45
2023/06/14 01:28:48;;;;;;;2.78;2.58;;;;;;;;;;5061722;28;20020;-46
2023/06/14 01:31:18;;;;;;;3.35;2.45;;;;;;;;;;5060330;28;20024;-48
2023/06/14 01:33:44;;;;;;;3.17;2.20;;;;;;;;;;5060656;28;20029;-44
2023/06/14 01:36:11;;;;;;;4.10;2.50;;;;;;;;;;5061300;28;20033;-44
2023/06/14 01:38:37;;;;;;;2.92;2.50;;;;;;;;;;5062480;28;20481;-45
2023/06/14 01:41:03;;;;;;;3.65;2.03;;;;;;;;;;5060705;28;20048;-44
2023/06/14 01:43:31;;;;;;;2.72;2.20;;;;;;;;;;5059285;28;20499;-44
2023/06/14 01:45:57;;;;;;;3.58;2.65;;;;;;;;;;5062685;28;20032;-45
2023/06/14 01:48:23;;;;;;;3.92;2.83;;;;;;;;;;5058354;28;20028;-44
2023/06/14 01:50:49;;;;;;;3.40;2.50;;;;;;;;;;5061462;28;20037;-46
2023/06/14 01:53:15;;;;;;;7.20;2.42;;;;;;;;;;5061613;28;20035;-48
2023/06/14 01:55:43;;;;;;;3.25;2.22;;;;;;;;;;5064365;28;20037;-48
2023/06/14 01:58:09;;;;;;;3.67;2.85;;;;;;;;;;5062736;28;20047;-44
2023/06/14 02:00:34;;;;;;;4.20;2.80;;;;;;;;;;5060636;28;20075;-47
2023/06/14 02:03:00;;;;;;;3.75;2.67;;;;;;;;;;5064108;28;20044;-45
2023/06/14 02:05:26;;;;;;;3.10;2.60;;;;;;;;;;5059744;28;20409;-45
2023/06/14 02:07:53;;;;;;;2.70;2.50;;;;;;;;;;5063125;28;20031;-44
2023/06/14 02:10:18;;;;;;;2.97;2.40;;;;;;;;;;5064899;28;20055;-44
2023/06/14 02:12:44;;;;;;;18.08;8.43;;;;;;;;;;5060657;28;20028;-45
2023/06/14 02:15:16;;;;;;;6.55;2.78;;;;;;;;;;5057938;28;20097;-44
2023/06/14 02:17:42;;;;;;;5.05;2.70;;;;;;;;;;5056498;28;20033;-46
2023/06/14 02:20:08;;;;;;;3.20;2.47;;;;;;;;;;5060285;28;20493;-46
2023/06/14 02:22:33;;;;;;;4.03;2.58;;;;;;;;;;5059687;28;20036;-45
2023/06/14 02:24:59;;;;;;;2.53;2.42;;;;;;;;;;5059138;28;20488;-43
2023/06/14 02:27:24;;;;;;;2.63;2.50;;;;;;;;;;5060196;28;20021;-44
2023/06/14 02:29:50;;;;;;;5.45;2.53;;;;;;;;;;5057630;28;20051;-45
2023/06/14 02:32:15;;;;;;;6.32;2.75;;;;;;;;;;5061508;28;20057;-45
2023/06/14 02:34:41;;;;;;;3.00;2.80;;;;;;;;;;5060105;28;20063;-47
2023/06/14 02:37:06;;;;;;;3.13;2.85;;;;;;;;;;5062772;28;20021;-48
2023/06/14 02:39:32;;;;;;;3.08;2.78;;;;;;;;;;5060933;28;20605;-45
2023/06/14 02:41:57;;;;;;;4.10;2.70;;;;;;;;;;5060074;28;20119;-47
2023/06/14 02:44:29;;;;;;;4.95;3.28;;;;;;;;;;5059160;28;20052;-46
2023/06/14 02:46:55;;;;;;;6.05;2.67;;;;;;;;;;5062034;28;20043;-46
2023/06/14 02:49:22;;;;;;;8.20;2.58;;;;;;;;;;5059187;28;20695;-50
2023/06/14 02:51:47;;;;;;;6.28;2.80;;;;;;;;;;5061170;28;20033;-47
2023/06/14 02:54:13;;;;;;;3.53;2.70;;;;;;;;;;5058181;28;20056;-44
2023/06/14 02:56:38;;;;;;;5.03;3.08;;;;;;;;;;5057640;28;20354;-45
2023/06/14 02:59:04;;;;;;;3.65;2.83;;;;;;;;;;5061692;28;20402;-45
2023/06/14 03:01:34;;;;;;;5.75;3.17;;;;;;;;;;5058871;28;20078;-44
2023/06/14 03:04:03;;;;;;;3.83;3.13;;;;;;;;;;5060202;28;20071;-45
2023/06/14 03:06:31;;;;;;;3.50;2.90;;;;;;;;;;5058908;28;20078;-50
2023/06/14 03:08:59;;;;;;;5.10;2.90;;;;;;;;;;5057436;28;20024;-44
2023/06/14 03:11:25;;;;;;;3.28;2.75;;;;;;;;;;5062037;28;20032;-45
2023/06/14 03:13:52;;;;;;;7.32;3.50;;;;;;;;;;5058017;28;20025;-45
2023/06/14 03:16:20;;;;;;;8.55;2.83;;;;;;;;;;5058983;28;20055;-45
2023/06/14 03:18:45;;;;;;;2.78;2.58;;;;;;;;;;5061999;28;20040;-48
2023/06/14 03:21:11;;;;;;;4.53;3.13;;;;;;;;;;5058816;28;20078;-45
2023/06/14 03:23:36;;;;;;;3.00;2.78;;;;;;;;;;5056877;28;20043;-48
2023/06/14 03:26:02;;;;;;;3.00;2.70;;;;;;;;;;5057417;28;20095;-45
2023/06/14 03:28:27;;;;;;;2.92;2.72;;;;;;;;;;5060105;28;20393;-47
2023/06/14 03:30:52;;;;;;;13.98;3.38;;;;;;;;;;5058611;28;20040;-47
2023/06/14 03:33:19;;;;;;;2.95;2.75;;;;;;;;;;5056437;28;20862;-44
2023/06/14 03:35:44;;;;;;;3.42;3.00;;;;;;;;;;5059086;28;20074;-44
2023/06/14 03:38:09;;;;;;;4.32;2.90;;;;;;;;;;5061731;28;20056;-44
2023/06/14 03:40:35;;;;;;;3.60;2.65;;;;;;;;;;5059322;28;20040;-44
2023/06/14 03:43:00;;;;;;;4.85;2.97;;;;;;;;;;5060530;28;20044;-44
2023/06/14 03:45:25;;;;;;;9.30;3.08;;;;;;;;;;5058774;28;20528;-46
2023/06/14 03:47:51;;;;;;;2.92;2.70;;;;;;;;;;5061032;28;20055;-49
2023/06/14 03:50:18;;;;;;;3.08;2.78;;;;;;;;;;5062809;28;20541;-45
2023/06/14 03:52:43;;;;;;;5.50;3.30;;;;;;;;;;5057582;28;20039;-49
2023/06/14 03:55:09;;;;;;;2.60;2.50;;;;;;;;;;5058868;28;20041;-44
2023/06/14 03:57:35;;;;;;;5.60;3.08;;;;;;;;;;5061848;28;20531;-47
2023/06/14 04:00:00;;;;;;;4.88;2.92;;;;;;;;;;5059222;28;20071;-45
2023/06/14 04:02:28;;;;;;;5.60;3.38;;;;;;;;;;5061345;28;20046;-50
2023/06/14 04:04:54;;;;;;;3.15;2.65;;;;;;;;;;5061503;28;20147;-44
2023/06/14 04:07:20;;;;;;;3.40;2.63;;;;;;;;;;5056478;28;20028;-46
2023/06/14 04:09:46;;;;;;;8.73;3.03;;;;;;;;;;5056454;28;20401;-45
2023/06/14 04:12:11;;;;;;;3.28;2.90;;;;;;;;;;5058387;28;20060;-44
2023/06/14 04:14:37;;;;;;;3.25;2.85;;;;;;;;;;5061523;28;20044;-45
2023/06/14 04:17:02;;;;;;;3.10;2.90;;;;;;;;;;5060017;28;20574;-44
2023/06/14 04:19:28;;;;;;;2.88;2.67;;;;;;;;;;5058172;28;20043;-44
2023/06/14 04:21:53;;;;;;;3.40;2.90;;;;;;;;;;5059148;28;20089;-49
2023/06/14 04:24:19;;;;;;;4.50;2.90;;;;;;;;;;5063584;28;20496;-46
2023/06/14 04:26:45;;;;;;;3.45;3.15;;;;;;;;;;5059988;28;20046;-44
2023/06/14 04:29:14;;;;;;;3.45;2.85;;;;;;;;;;5061092;28;20032;-44
2023/06/14 04:31:40;;;;;;;4.28;3.10;;;;;;;;;;5063233;28;20036;-45
2023/06/14 04:34:05;;;;;;;5.53;3.40;;;;;;;;;;5061881;28;20071;-48
2023/06/14 04:36:34;;;;;;;3.72;3.13;;;;;;;;;;5062966;28;20056;-43
2023/06/14 04:39:03;;;;;;;4.00;3.00;;;;;;;;;;5061240;28;20045;-49
2023/06/14 04:41:30;;;;;;;5.72;3.00;;;;;;;;;;5063538;28;20037;-44
2023/06/14 04:43:57;;;;;;;5.25;3.20;;;;;;;;;;5058777;28;20504;-44
2023/06/14 04:46:22;;;;;;;3.50;3.20;;;;;;;;;;5060440;28;20028;-43
2023/06/14 04:48:50;;;;;;;3.10;2.90;;;;;;;;;;5062948;28;20043;-44
2023/06/14 04:51:16;;;;;;;3.75;3.33;;;;;;;;;;5067581;28;20028;-45
2023/06/14 04:53:41;;;;;;;3.35;3.15;;;;;;;;;;5059823;28;20035;-45
2023/06/14 04:56:07;;;;;;;5.35;3.28;;;;;;;;;;5063293;28;20024;-44
2023/06/14 04:58:32;;;;;;;3.65;2.88;;;;;;;;;;5064820;28;20051;-46
2023/06/14 05:00:59;;;;;;;3.50;3.20;;;;;;;;;;5061826;28;20131;-47
2023/06/14 05:03:25;;;;;;;3.70;3.20;;;;;;;;;;5060916;28;20497;-44
2023/06/14 05:05:53;;;;;;;3.30;3.00;;;;;;;;;;5064513;28;20043;-46
2023/06/14 05:08:18;;;;;;;7.38;3.17;;;;;;;;;;5064018;28;20463;-46
2023/06/14 05:10:43;;;;;;;9.23;3.55;;;;;;;;;;5061313;28;20040;-49
2023/06/14 05:13:10;;;;;;;3.60;3.30;;;;;;;;;;5063177;28;20032;-46
2023/06/14 05:15:35;;;;;;;3.28;3.00;;;;;;;;;;5059919;28;20055;-43
2023/06/14 05:18:01;;;;;;;3.05;2.80;;;;;;;;;;5063565;28;20104;-45
2023/06/14 05:20:26;;;;;;;3.30;3.00;;;;;;;;;;5060125;28;20040;-48
2023/06/14 05:22:56;;;;;;;3.15;2.85;;;;;;;;;;5058617;28;20040;-44
2023/06/14 05:25:22;;;;;;;9.68;3.70;;;;;;;;;;5057551;28;20036;-45
2023/06/14 05:27:48;;;;;;;6.13;3.08;;;;;;;;;;5063687;28;20464;-47
2023/06/14 05:30:15;;;;;;;3.53;3.22;;;;;;;;;;5062740;28;20402;-47
2023/06/14 05:32:40;;;;;;;4.07;3.38;;;;;;;;;;5057111;28;21398;-46
2023/06/14 05:38:08;;;;;;;3.10;2.90;;;;;;;;;;5037772;28;20981;-46
2023/06/14 05:43:32;;;;;;;5.30;3.50;;;;;;;;;;5048631;27;20621;-44
2023/06/14 05:45:57;;;;;;;5.50;3.90;;;;;;;;;;5034620;28;20479;-48
2023/06/14 05:48:22;;;;;;;3.53;3.22;;;;;;;;;;5038571;28;20177;-45
2023/06/14 05:50:48;;;;;;;3.05;2.83;;;;;;;;;;5034482;28;20075;-46
2023/06/14 05:53:13;;;;;;;4.80;2.97;;;;;;;;;;5041523;28;20506;-43
2023/06/14 05:57:42;;;;;;;5.72;2.92;;;;;;;;;;5050405;28;21369;-45
2023/06/14 06:04:50;;;;;;;4.35;2.78;;;;;;;;;;5068042;27;20564;-46
2023/06/14 06:07:16;;;;;;;4.63;2.70;;;;;;;;;;5061167;28;20037;-49
2023/06/14 06:09:41;;;;;;;5.20;2.90;;;;;;;;;;5072210;28;20040;-47
2023/06/14 06:12:07;;;;;;;3.03;2.83;;;;;;;;;;5084526;28;20028;-47
2023/06/14 06:14:32;;;;;;;2.97;2.78;;;;;;;;;;5072982;28;20132;-46
2023/06/14 06:16:58;;;;;;;5.70;2.70;;;;;;;;;;5066524;28;20056;-50
2023/06/14 06:19:24;;;;;;;10.70;2.67;;;;;;;;;;5072705;28;20036;-47
2023/06/14 06:21:49;;;;;;;2.92;2.70;;;;;;;;;;5083160;28;20032;-44
2023/06/14 06:24:15;;;;;;;3.20;2.90;;;;;;;;;;5074164;28;20239;-48
2023/06/14 06:26:40;;;;;;;4.07;3.67;;;;;;;;;;5062788;28;20032;-46
2023/06/14 06:29:05;;;;;;;7.10;3.10;;;;;;;;;;5071951;28;20035;-50
2023/06/14 06:31:31;;;;;;;3.70;2.80;;;;;;;;;;5082639;28;20028;-49
2023/06/14 06:33:56;;;;;;;4.03;2.80;;;;;;;;;;5082607;28;20032;-45
2023/06/14 06:36:22;;;;;;;4.20;2.92;;;;;;;;;;5084176;28;20469;-44
2023/06/14 06:38:48;;;;;;;3.03;2.58;;;;;;;;;;5081922;28;20036;-45
2023/06/14 06:41:13;;;;;;;3.60;2.60;;;;;;;;;;5083799;28;20103;-46
2023/06/14 06:43:39;;;;;;;3.10;2.70;;;;;;;;;;5081108;28;20094;-46
2023/06/14 06:46:04;;;;;;;3.10;2.30;;;;;;;;;;5083981;28;20036;-44
2023/06/14 06:48:30;;;;;;;5.13;2.60;;;;;;;;;;5082029;28;20028;-45
2023/06/14 06:50:55;;;;;;;5.05;2.85;;;;;;;;;;5082533;28;20031;-46
2023/06/14 06:53:21;;;;;;;4.47;2.75;;;;;;;;;;5078966;28;20540;-43
2023/06/14 06:55:46;;;;;;;5.35;2.72;;;;;;;;;;5084076;28;20024;-44
2023/06/14 06:58:12;;;;;;;2.70;2.50;;;;;;;;;;5079865;28;20044;-45
2023/06/14 07:00:37;;;;;;;5.60;2.83;;;;;;;;;;5081188;28;20086;-44
2023/06/14 07:03:03;;;;;;;8.93;2.90;;;;;;;;;;5080732;28;20060;-44
2023/06/14 07:05:29;;;;;;;4.05;2.30;;;;;;;;;;5079302;28;20071;-44
2023/06/14 07:07:55;;;;;;;4.35;2.70;;;;;;;;;;5082392;28;20052;-44
2023/06/14 07:10:20;;;;;;;2.78;2.58;;;;;;;;;;5079096;28;20078;-44
2023/06/14 07:12:46;;;;;;;4.50;2.60;;;;;;;;;;5079394;28;20473;-46
2023/06/14 07:15:12;;;;;;;2.80;2.60;;;;;;;;;;5071850;28;20068;-44
2023/06/14 07:17:37;;;;;;;8.73;2.58;;;;;;;;;;5068706;28;20054;-44
2023/06/14 07:20:13;;;;;;;2.88;2.67;;;;;;;;;;5069877;28;20052;-46
2023/06/14 07:22:41;;;;;;;3.40;2.70;;;;;;;;;;5069332;28;20528;-44
2023/06/14 07:25:08;;;;;;;5.53;2.83;;;;;;;;;;5069356;28;20036;-44
2023/06/14 07:27:33;;;;;;;3.65;3.05;;;;;;;;;;5068682;28;20027;-44
2023/06/14 07:29:59;;;;;;;3.47;2.60;;;;;;;;;;5069491;28;20393;-45
2023/06/14 07:32:24;;;;;;;2.83;2.63;;;;;;;;;;5066594;28;20032;-45
2023/06/14 07:34:49;;;;;;;8.30;3.10;;;;;;;;;;5071122;28;20037;-44
2023/06/14 07:37:15;;;;;;;4.68;3.17;;;;;;;;;;5069349;28;20111;-43
2023/06/14 07:39:40;;;;;;;5.05;2.90;;;;;;;;;;5068878;28;20040;-45
2023/06/14 07:42:06;;;;;;;3.38;2.50;;;;;;;;;;5069121;28;20033;-45
2023/06/14 07:44:31;;;;;;;3.58;2.50;;;;;;;;;;5068775;28;20044;-45
2023/06/14 07:46:59;;;;;;;9.80;7.10;;;;;;;;;;5068170;28;21017;-45
2023/06/14 07:49:25;;;;;;;36.60;29.30;;;;;;;;;;5067839;28;20024;-45
2023/06/14 07:51:50;;;;;;;21.45;17.95;;;;;;;;;;5068309;28;20082;-45
2023/06/14 07:54:16;;;;;;;5.82;3.80;;;;;;;;;;5066151;28;20028;-45
2023/06/14 07:56:42;;;;;;;3.67;2.13;;;;;;;;;;5068745;28;20021;-44
2023/06/14 07:59:07;;;;;;;3.55;2.22;;;;;;;;;;5070001;28;20036;-46
2023/06/14 08:01:33;;;;;;;5.80;2.80;;;;;;;;;;5067587;28;20119;-45
2023/06/14 08:03:58;;;;;;;2.20;1.98;;;;;;;;;;5067122;28;20036;-43
2023/06/14 08:06:24;;;;;;;1.90;1.80;;;;;;;;;;5069042;28;20427;-44
2023/06/14 08:08:49;;;;;;;2.65;2.28;;;;;;;;;;5067159;28;20029;-45
2023/06/14 08:11:15;;;;;;;2.25;2.08;;;;;;;;;;5069093;28;20036;-45
2023/06/14 08:13:40;;;;;;;4.07;3.55;;;;;;;;;;5067103;28;20492;-44
2023/06/14 08:16:05;;;;;;;4.25;3.08;;;;;;;;;;5067690;28;20091;-44
2023/06/14 08:18:31;;;;;;;5.13;4.63;;;;;;;;;;5067806;28;20469;-44
2023/06/14 08:20:57;;;;;;;6.28;4.50;;;;;;;;;;5066256;28;20043;-44
2023/06/14 08:23:23;;;;;;;6.72;5.10;;;;;;;;;;5067749;28;20032;-45
2023/06/14 08:25:48;;;;;;;8.57;5.57;;;;;;;;;;5068012;28;20029;-45
2023/06/14 08:28:14;;;;;;;4.93;4.18;;;;;;;;;;5068184;28;20024;-47
2023/06/14 08:30:39;;;;;;;4.88;4.28;;;;;;;;;;5067028;28;20043;-45
2023/06/14 08:33:05;;;;;;;5.78;4.43;;;;;;;;;;5067978;28;20469;-45
2023/06/14 08:35:30;;;;;;;5.25;3.95;;;;;;;;;;5065550;28;20049;-45
2023/06/14 08:37:55;;;;;;;5.22;3.70;;;;;;;;;;5068289;28;20032;-45
2023/06/14 08:40:22;;;;;;;3.28;3.08;;;;;;;;;;5067080;28;20485;-45
2023/06/14 08:42:52;;;;;;;3.30;3.10;;;;;;;;;;5065397;28;20043;-44
2023/06/14 08:45:19;;;;;;;5.38;3.33;;;;;;;;;;5065116;28;20064;-44
2023/06/14 08:47:45;;;;;;;3.22;2.92;;;;;;;;;;5067197;28;20040;-45
2023/06/14 08:50:11;;;;;;;3.92;2.78;;;;;;;;;;5068308;28;20028;-45
2023/06/14 08:52:45;;;;;;;7.28;2.50;;;;;;;;;;5069140;28;20078;-44
2023/06/14 08:55:11;;;;;;;2.72;2.53;;;;;;;;;;5063914;28;20051;-45
2023/06/14 08:57:37;;;;;;;2.90;2.55;;;;;;;;;;5066184;28;20380;-45
2023/06/14 09:00:10;;;;;;;2.40;2.20;;;;;;;;;;5063368;28;20040;-44
2023/06/14 09:02:35;;;;;;;1.92;1.77;;;;;;;;;;5067893;28;20388;-43
2023/06/14 09:05:00;;;;;;;2.88;2.00;;;;;;;;;;5067618;28;20037;-45
2023/06/14 09:07:26;;;;;;;2.00;1.90;;;;;;;;;;5063105;28;20017;-45
2023/06/14 09:10:12;;;;;;;6.13;2.30;;;;;;;;;;5064623;28;20086;-45
2023/06/14 09:12:39;;;;;;;1.88;1.77;;;;;;;;;;5066880;28;20040;-44
2023/06/14 09:15:06;;;;;;;3.28;2.65;;;;;;;;;;5067381;28;20083;-45
2023/06/14 09:17:35;;;;;;;1.45;1.38;;;;;;;;;;5066537;28;20059;-45
2023/06/14 09:20:05;;;;;;;3.67;1.98;;;;;;;;;;5067522;28;20033;-44
2023/06/14 09:22:32;;;;;;;3.35;3.05;;;;;;;;;;5066888;28;20607;-44
2023/06/14 09:24:57;;;;;;;64.75;39.95;;;;;;;;;;5065941;28;20031;-44
2023/06/14 09:27:25;;;;;;;5.20;3.88;;;;;;;;;;5067006;28;20028;-45
2023/06/14 09:29:50;;;;;;;15.80;11.88;;;;;;;;;;5065870;28;20037;-45
2023/06/14 09:32:16;;;;;;;19.67;13.80;;;;;;;;;;5065073;28;20024;-45
2023/06/14 09:34:42;;;;;;;89.75;63.65;;;;;;;;;;5065816;28;20048;-45
2023/06/14 09:37:07;;;;;;;40.90;30.50;;;;;;;;;;5065374;28;20174;-45
2023/06/14 09:39:32;;;;;;;147.13;107.40;;;;;;;;;;5066630;28;20040;-45
2023/06/14 09:41:58;;;;;;;44.30;32.92;;;;;;;;;;5065804;28;20032;-45
2023/06/14 09:44:28;;;;;;;150.27;114.03;;;;;;;;;;5065884;28;20028;-45
2023/06/14 09:46:56;;;;;;;6.40;5.25;;;;;;;;;;5064528;28;20035;-45
2023/06/14 09:49:21;;;;;;;4.53;3.65;;;;;;;;;;5064117;28;20086;-45
2023/06/14 09:51:50;;;;;;;4.10;3.60;;;;;;;;;;5065707;28;20131;-45
2023/06/14 09:54:21;;;;;;;4.65;4.03;;;;;;;;;;5066114;28;20036;-46
2023/06/14 09:56:49;;;;;;;3.67;3.38;;;;;;;;;;5063273;28;20032;-44
2023/06/14 09:59:17;;;;;;;4.35;2.50;;;;;;;;;;5065497;28;20051;-44
2023/06/14 10:01:43;;;;;;;12.00;8.32;;;;;;;;;;5063264;28;20115;-44
2023/06/14 10:04:10;;;;;;;2.55;2.35;;;;;;;;;;5065469;28;20059;-45
2023/06/14 10:06:39;;;;;;;2.60;2.25;;;;;;;;;;5064437;28;20020;-43
2023/06/14 10:09:07;;;;;;;3.80;2.30;;;;;;;;;;5064721;28;20408;-44
2023/06/14 10:11:33;;;;;;;2.30;1.98;;;;;;;;;;5065451;28;20032;-44
2023/06/14 10:13:59;;;;;;;2.58;2.38;;;;;;;;;;5064083;28;20032;-47
2023/06/14 10:16:32;;;;;;;4.28;3.88;;;;;;;;;;5066084;28;20035;-44
2023/06/14 10:19:15;;;;;;;4.60;4.20;;;;;;;;;;5065127;28;20047;-45
2023/06/14 10:21:57;;;;;;;7.85;2.15;;;;;;;;;;5065994;28;20033;-44
2023/06/14 10:24:30;;;;;;;6.53;2.15;;;;;;;;;;5062175;28;20568;-44
2023/06/14 10:26:57;;;;;;;5.35;2.70;;;;;;;;;;5062163;28;20032;-44
2023/06/14 10:29:23;;;;;;;3.35;2.40;;;;;;;;;;5061598;28;20528;-45
2023/06/14 10:31:50;;;;;;;4.90;3.85;;;;;;;;;;5064287;28;20036;-44
2023/06/14 10:34:24;;;;;;;2.85;2.60;;;;;;;;;;5051922;28;20051;-46
2023/06/14 10:37:13;;;;;;;2.70;2.50;;;;;;;;;;5056588;28;20137;-46
2023/06/14 10:39:45;;;;;;;4.95;2.75;;;;;;;;;;5053610;28;20503;-45
2023/06/14 10:42:11;;;;;;;2.30;2.20;;;;;;;;;;5055832;28;20040;-46
2023/06/14 10:47:53;;;;;;;3.15;2.17;;;;;;;;;;5035870;27;20989;-45
2023/06/14 10:50:29;;;;;;;6.28;3.60;;;;;;;;;;5019430;28;20041;-45
2023/06/14 10:52:55;;;;;;;2.65;2.45;;;;;;;;;;5017797;28;20037;-46
2023/06/14 10:55:22;;;;;;;3.35;2.75;;;;;;;;;;5017109;28;20431;-45
2023/06/14 10:57:55;;;;;;;3.38;2.50;;;;;;;;;;5018116;28;20213;-47
2023/06/14 11:00:23;;;;;;;4.40;2.20;;;;;;;;;;5018487;28;20034;-45
2023/06/14 11:03:07;;;;;;;2.78;2.17;;;;;;;;;;5019010;28;20037;-45
2023/06/14 11:05:47;;;;;;;2.00;1.90;;;;;;;;;;5018870;28;20037;-45
2023/06/14 11:08:30;;;;;;;4.55;2.05;;;;;;;;;;5017160;28;20403;-45
2023/06/14 11:11:00;;;;;;;3.40;2.53;;;;;;;;;;5018060;28;20037;-45
2023/06/14 11:13:26;;;;;;;8.38;2.33;;;;;;;;;;5017557;28;20601;-45
2023/06/14 11:15:53;;;;;;;2.40;2.10;;;;;;;;;;5018581;28;20148;-45
2023/06/14 11:18:27;;;;;;;2.10;2.00;;;;;;;;;;5018971;28;20038;-45
2023/06/14 11:20:52;;;;;;;2.60;2.40;;;;;;;;;;5018804;28;20030;-44
2023/06/14 11:23:17;;;;;;;4.32;1.95;;;;;;;;;;5017096;28;20038;-45
2023/06/14 11:25:43;;;;;;;3.53;2.75;;;;;;;;;;5021260;28;20038;-44
2023/06/14 11:28:08;;;;;;;2.33;2.13;;;;;;;;;;5018117;28;20064;-44
2023/06/14 11:30:34;;;;;;;1.88;1.77;;;;;;;;;;5017331;28;20398;-44
2023/06/14 11:32:59;;;;;;;2.35;1.73;;;;;;;;;;5019060;28;20029;-44
2023/06/14 11:35:26;;;;;;;2.50;2.30;;;;;;;;;;5019003;28;20514;-45
2023/06/14 11:37:56;;;;;;;1.98;1.83;;;;;;;;;;5016296;28;20030;-44
2023/06/14 11:40:24;;;;;;;1.95;1.85;;;;;;;;;;5008633;28;20030;-45
2023/06/14 11:42:49;;;;;;;4.55;2.22;;;;;;;;;;5015732;28;20026;-44
2023/06/14 11:45:15;;;;;;;2.35;2.10;;;;;;;;;;5015185;28;20037;-45
2023/06/14 11:47:40;;;;;;;2.15;2.05;;;;;;;;;;5012693;28;20050;-44
2023/06/14 11:50:08;;;;;;;2.45;2.10;;;;;;;;;;5015317;28;20462;-44
2023/06/14 11:52:34;;;;;;;3.03;2.30;;;;;;;;;;5011772;28;20084;-42
2023/06/14 11:55:00;;;;;;;2.35;2.15;;;;;;;;;;5027708;28;20482;-44
2023/06/14 11:57:26;;;;;;;2.78;2.58;;;;;;;;;;5012172;28;20111;-45
2023/06/14 11:59:52;;;;;;;2.53;2.30;;;;;;;;;;4999213;28;20057;-44
2023/06/14 12:02:19;;;;;;;1.80;1.70;;;;;;;;;;4999187;28;20137;-45
2023/06/14 12:04:48;;;;;;;1.92;1.83;;;;;;;;;;5002411;28;20053;-44
2023/06/14 12:07:17;;;;;;;2.38;2.17;;;;;;;;;;4997188;28;20050;-44
2023/06/14 12:10:02;;;;;;;3.67;1.90;;;;;;;;;;5002110;28;20063;-44
2023/06/14 12:12:29;;;;;;;1.85;1.75;;;;;;;;;;5001172;28;20069;-44
2023/06/14 12:14:56;;;;;;;3.83;1.85;;;;;;;;;;5001225;28;20880;-45
2023/06/14 12:17:21;;;;;;;2.42;2.22;;;;;;;;;;5000065;28;20042;-44
2023/06/14 12:19:49;;;;;;;2.47;2.28;;;;;;;;;;5000697;28;20035;-45
2023/06/14 12:22:15;;;;;;;2.15;2.05;;;;;;;;;;4997348;28;20030;-45
2023/06/14 12:24:44;;;;;;;2.03;1.92;;;;;;;;;;4998869;28;20107;-44
2023/06/14 12:27:15;;;;;;;1.88;1.77;;;;;;;;;;5000379;28;20062;-44
2023/06/14 12:29:43;;;;;;;6.45;2.22;;;;;;;;;;5001131;28;20034;-44
2023/06/14 12:32:09;;;;;;;3.60;2.03;;;;;;;;;;4999531;28;20069;-45
2023/06/14 12:34:35;;;;;;;1.92;1.73;;;;;;;;;;4997024;28;20409;-44
2023/06/14 12:37:01;;;;;;;1.70;1.60;;;;;;;;;;5000881;28;20510;-44
2023/06/14 12:39:26;;;;;;;2.10;2.00;;;;;;;;;;5002278;28;20040;-44
2023/06/14 12:41:51;;;;;;;2.13;1.90;;;;;;;;;;5001652;28;20038;-44
2023/06/14 12:44:17;;;;;;;4.45;2.30;;;;;;;;;;5000465;28;20041;-45
2023/06/14 12:46:43;;;;;;;3.30;2.13;;;;;;;;;;4997296;28;20064;-45
2023/06/14 12:49:10;;;;;;;2.58;2.08;;;;;;;;;;4999577;28;20041;-46
2023/06/14 12:51:36;;;;;;;2.38;2.17;;;;;;;;;;4998709;28;20042;-45
2023/06/14 12:54:01;;;;;;;3.72;2.17;;;;;;;;;;5001190;28;20037;-44
2023/06/14 12:56:27;;;;;;;3.80;2.28;;;;;;;;;;5000484;28;20395;-44
2023/06/14 12:58:52;;;;;;;2.00;1.90;;;;;;;;;;5002103;28;20025;-44
2023/06/14 13:01:18;;;;;;;2.35;2.15;;;;;;;;;;5004518;28;20045;-45
2023/06/14 13:03:44;;;;;;;2.20;2.00;;;;;;;;;;5000730;28;20399;-44
2023/06/14 13:06:09;;;;;;;2.65;2.45;;;;;;;;;;5002428;28;20025;-45
2023/06/14 13:08:34;;;;;;;2.50;2.30;;;;;;;;;;5002674;28;20079;-44
2023/06/14 13:11:00;;;;;;;5.47;2.45;;;;;;;;;;5002094;28;20041;-44
2023/06/14 13:13:25;;;;;;;3.17;2.45;;;;;;;;;;5002131;28;20088;-44
2023/06/14 13:15:51;;;;;;;3.28;2.30;;;;;;;;;;5003723;28;20457;-44
2023/06/14 13:18:16;;;;;;;2.33;2.10;;;;;;;;;;5000372;28;20034;-44
2023/06/14 13:20:42;;;;;;;2.55;2.35;;;;;;;;;;4998434;28;20034;-45
2023/06/14 13:23:08;;;;;;;2.60;2.40;;;;;;;;;;5000896;28;20129;-44
2023/06/14 13:25:37;;;;;;;4.28;2.40;;;;;;;;;;5002189;28;20034;-44
2023/06/14 13:28:06;;;;;;;5.53;2.67;;;;;;;;;;5000735;28;20057;-45
2023/06/14 13:30:32;;;;;;;3.10;2.90;;;;;;;;;;5002464;28;20111;-44
2023/06/14 13:32:58;;;;;;;3.90;3.20;;;;;;;;;;5001898;28;20045;-44
2023/06/14 13:35:24;;;;;;;4.90;3.20;;;;;;;;;;5001305;28;20034;-44
2023/06/14 13:37:49;;;;;;;3.80;3.30;;;;;;;;;;5002527;28;20060;-44
2023/06/14 13:40:15;;;;;;;5.45;3.53;;;;;;;;;;5002154;28;20026;-44
2023/06/14 13:42:41;;;;;;;3.45;3.15;;;;;;;;;;5001968;28;20127;-46
2023/06/14 13:45:08;;;;;;;6.13;3.28;;;;;;;;;;5001394;28;20041;-43
2023/06/14 13:47:33;;;;;;;4.72;2.90;;;;;;;;;;4999883;28;20038;-45
2023/06/14 13:49:58;;;;;;;5.20;3.63;;;;;;;;;;5002217;28;20065;-45
2023/06/14 13:52:25;;;;;;;8.05;3.05;;;;;;;;;;5002379;28;20129;-45
2023/06/14 13:54:51;;;;;;;4.97;2.70;;;;;;;;;;4999878;28;20024;-44
2023/06/14 13:57:17;;;;;;;3.10;2.63;;;;;;;;;;5001111;28;20073;-44
2023/06/14 13:59:44;;;;;;;3.17;2.88;;;;;;;;;;4997676;28;20026;-44
2023/06/14 14:02:11;;;;;;;5.28;2.95;;;;;;;;;;4997158;28;20415;-44
2023/06/14 14:04:37;;;;;;;6.05;3.72;;;;;;;;;;4999033;28;20528;-44
2023/06/14 14:07:04;;;;;;;3.15;2.75;;;;;;;;;;4997823;28;20041;-44
2023/06/14 14:09:30;;;;;;;5.22;2.83;;;;;;;;;;5000686;28;20503;-44
2023/06/14 14:11:56;;;;;;;9.60;2.97;;;;;;;;;;4999108;28;20046;-44
2023/06/14 14:14:21;;;;;;;3.75;3.13;;;;;;;;;;4997720;28;20064;-44
2023/06/14 14:16:46;;;;;;;5.53;3.05;;;;;;;;;;5001037;28;20042;-44
2023/06/14 14:19:12;;;;;;;3.47;2.90;;;;;;;;;;4997261;28;20036;-44
2023/06/14 14:21:37;;;;;;;3.45;3.13;;;;;;;;;;4998104;28;20038;-44
2023/06/14 14:24:03;;;;;;;4.03;2.90;;;;;;;;;;4999310;28;20033;-45
2023/06/14 14:26:28;;;;;;;3.40;3.10;;;;;;;;;;4998205;28;20026;-44
2023/06/14 14:28:54;;;;;;;5.10;2.90;;;;;;;;;;4998999;28;20122;-45
2023/06/14 14:31:19;;;;;;;4.78;3.22;;;;;;;;;;4997805;28;20030;-44
2023/06/14 14:33:45;;;;;;;4.60;3.40;;;;;;;;;;4996292;28;20051;-44
2023/06/14 14:36:10;;;;;;;4.95;3.40;;;;;;;;;;5000982;28;20026;-44
2023/06/14 14:38:35;;;;;;;5.40;3.22;;;;;;;;;;4997809;28;20042;-40
2023/06/14 14:41:01;;;;;;;6.65;3.65;;;;;;;;;;4996790;28;20034;-38
2023/06/14 14:43:26;;;;;;;4.40;3.10;;;;;;;;;;4997862;28;20034;-39
2023/06/14 14:45:52;;;;;;;3.53;3.22;;;;;;;;;;4998080;28;20247;-39
2023/06/14 14:48:18;;;;;;;5.85;3.75;;;;;;;;;;4995958;28;20129;-40
2023/06/14 14:50:43;;;;;;;7.95;3.20;;;;;;;;;;4996699;28;20033;-39
2023/06/14 14:53:08;;;;;;;7.38;3.72;;;;;;;;;;4994406;28;20049;-39
2023/06/14 14:55:37;;;;;;;5.00;3.72;;;;;;;;;;4996561;28;20065;-39